Time;durP1;ratioP1;P1;durP2;ratioP2;P2;SDS_P1;SDS_P2;PMS_P1;PMS_P2;Temp;Humidity;BMP_temperature;BMP_pressure;BME280_temperature;BME280_humidity;BME280_pressure;Samples;Min_cycle;Max_cycle;Signal;HPM_P1;HPM_P2
2022/12/09 00:00:36;;;;;;;33.80;13.95;;;;;;;-3.93;100.00;94446.53;5022926;28;20068;-71
2022/12/09 00:03:14;;;;;;;43.72;15.32;;;;;;;-3.97;100.00;94447.16;5021201;28;20077;-71
2022/12/09 00:05:40;;;;;;;32.88;14.13;;;;;;;-4.00;100.00;94438.81;5012734;28;20073;-71
2022/12/09 00:08:05;;;;;;;34.28;13.38;;;;;;;-3.93;100.00;94443.19;5019194;28;20519;-71
2022/12/09 00:10:31;;;;;;;36.03;14.23;;;;;;;-3.95;100.00;94445.16;5027798;28;20045;-72
2022/12/09 00:12:57;;;;;;;35.75;13.75;;;;;;;-3.97;100.00;94442.00;5017114;28;20042;-71
2022/12/09 00:15:22;;;;;;;35.70;14.23;;;;;;;-3.98;100.00;94440.41;5011175;28;20042;-70
2022/12/09 00:17:48;;;;;;;35.05;13.65;;;;;;;-3.95;100.00;94440.00;5022696;28;20053;-70
2022/12/09 00:20:13;;;;;;;35.13;14.77;;;;;;;-4.03;100.00;94428.97;5029069;28;20041;-70
2022/12/09 00:22:39;;;;;;;30.23;12.30;;;;;;;-4.01;100.00;94434.69;5026107;28;20495;-70
2022/12/09 00:25:05;;;;;;;34.35;13.85;;;;;;;-4.04;100.00;94437.69;5021065;28;20048;-70
2022/12/09 00:27:30;;;;;;;32.78;13.73;;;;;;;-4.03;100.00;94423.81;5017360;28;20037;-70
2022/12/09 00:29:56;;;;;;;29.80;12.48;;;;;;;-4.10;100.00;94423.06;5026163;28;20048;-70
2022/12/09 00:32:21;;;;;;;28.23;13.00;;;;;;;-4.16;100.00;94416.19;5027195;28;20643;-71
2022/12/09 00:34:48;;;;;;;35.20;13.30;;;;;;;-4.13;100.00;94410.63;5029317;28;20438;-71
2022/12/09 00:37:13;;;;;;;28.60;12.65;;;;;;;-4.15;100.00;94399.78;5023856;28;20038;-71
2022/12/09 00:39:39;;;;;;;33.55;13.32;;;;;;;-4.19;100.00;94408.88;5030914;28;20470;-71
2022/12/09 00:42:04;;;;;;;31.45;12.13;;;;;;;-4.17;100.00;94401.75;5019701;28;20495;-71
2022/12/09 00:44:30;;;;;;;35.92;13.32;;;;;;;-4.15;100.00;94404.91;5026759;28;20064;-71
2022/12/09 00:46:55;;;;;;;29.52;12.07;;;;;;;-4.16;100.00;94398.19;5020733;28;20120;-71
2022/12/09 00:49:21;;;;;;;24.50;11.43;;;;;;;-4.16;100.00;94393.06;5027010;28;20049;-71
2022/12/09 00:51:46;;;;;;;30.15;12.52;;;;;;;-4.13;100.00;94392.66;5019997;28;20537;-71
2022/12/09 00:54:12;;;;;;;36.17;13.18;;;;;;;-4.14;100.00;94391.06;5018924;28;20045;-70
2022/12/09 00:56:37;;;;;;;24.83;11.85;;;;;;;-4.22;100.00;94383.59;5020118;28;20038;-70
2022/12/09 00:59:03;;;;;;;32.15;12.57;;;;;;;-4.23;100.00;94382.03;5021935;28;20041;-70
2022/12/09 01:01:29;;;;;;;28.40;11.77;;;;;;;-4.24;100.00;94375.31;5013634;28;20050;-70
2022/12/09 01:03:55;;;;;;;34.70;12.27;;;;;;;-4.27;100.00;94375.72;5016400;28;20041;-69
2022/12/09 01:06:23;;;;;;;31.75;12.55;;;;;;;-4.28;100.00;94379.28;5027472;28;20099;-69
2022/12/09 01:08:49;;;;;;;24.58;10.82;;;;;;;-4.25;100.00;94368.56;5015167;28;20049;-69
2022/12/09 01:11:27;;;;;;;26.35;11.57;;;;;;;-4.36;100.00;94372.59;5025799;28;20095;-69
2022/12/09 01:13:53;;;;;;;24.83;11.60;;;;;;;-4.39;100.00;94368.66;5013703;28;20044;-70
2022/12/09 01:16:21;;;;;;;34.70;12.32;;;;;;;-4.39;100.00;94363.50;5014896;28;20041;-70
2022/12/09 01:18:47;;;;;;;33.20;12.68;;;;;;;-4.41;100.00;94370.63;5021511;28;20117;-69
2022/12/09 01:21:12;;;;;;;29.33;13.00;;;;;;;-4.42;100.00;94371.63;5023177;28;20087;-70
2022/12/09 01:23:38;;;;;;;34.17;11.55;;;;;;;-4.32;100.00;94372.97;5020044;28;20037;-70
2022/12/09 01:26:05;;;;;;;30.30;12.40;;;;;;;-4.39;100.00;94384.06;5021003;28;20500;-69
2022/12/09 01:28:32;;;;;;;25.65;11.13;;;;;;;-4.36;100.00;94377.72;5016343;28;20504;-70
2022/12/09 01:31:18;;;;;;;23.13;10.43;;;;;;;-4.44;100.00;94360.78;5024207;28;20511;-70
2022/12/09 01:33:44;;;;;;;22.98;10.07;;;;;;;-4.37;100.00;94356.41;5011093;28;20114;-70
2022/12/09 01:36:14;;;;;;;26.25;11.25;;;;;;;-4.43;100.00;94356.41;5014517;28;20042;-70
2022/12/09 01:38:40;;;;;;;28.38;9.73;;;;;;;-4.43;100.00;94357.19;5022289;28;20120;-72
2022/12/09 01:41:06;;;;;;;26.45;10.48;;;;;;;-4.54;100.00;94360.41;5028702;28;20042;-69
2022/12/09 01:43:32;;;;;;;24.73;9.80;;;;;;;-4.61;100.00;94369.91;5024897;28;20038;-70
2022/12/09 01:45:57;;;;;;;25.55;10.25;;;;;;;-4.63;100.00;94369.34;5026307;28;20045;-70
2022/12/09 01:48:27;;;;;;;30.33;10.52;;;;;;;-4.74;100.00;94363.84;5019581;28;20415;-70
2022/12/09 01:51:01;;;;;;;24.63;9.63;;;;;;;-4.66;100.00;94357.69;5018123;28;20401;-69
2022/12/09 01:53:30;;;;;;;28.50;10.27;;;;;;;-4.66;100.00;94349.97;5009756;28;20153;-69
2022/12/09 01:55:59;;;;;;;24.00;9.85;;;;;;;-4.63;100.00;94352.13;5018788;28;20407;-69
2022/12/09 01:58:25;;;;;;;23.85;10.45;;;;;;;-4.70;100.00;94347.03;5033140;28;20099;-69
2022/12/09 02:00:51;;;;;;;23.98;10.00;;;;;;;-4.68;100.00;94346.03;5031896;28;20045;-70
2022/12/09 02:03:16;;;;;;;19.85;8.95;;;;;;;-4.64;100.00;94344.63;5026793;28;20400;-70
2022/12/09 02:05:43;;;;;;;29.00;11.30;;;;;;;-4.62;100.00;94342.69;5018525;28;20061;-70
2022/12/09 02:08:12;;;;;;;24.48;10.13;;;;;;;-4.61;100.00;94344.22;5025909;28;20138;-70
2022/12/09 02:10:54;;;;;;;28.65;10.13;;;;;;;-4.64;100.00;94329.25;5025660;28;20420;-70
2022/12/09 02:13:43;;;;;;;24.50;10.40;;;;;;;-4.56;100.00;94326.44;5026230;28;20049;-70
2022/12/09 02:16:13;;;;;;;23.98;10.10;;;;;;;-4.73;100.00;94319.19;5027742;28;20041;-69
2022/12/09 02:18:50;;;;;;;23.83;9.57;;;;;;;-4.72;100.00;94320.78;5030998;28;20095;-70
2022/12/09 02:21:35;;;;;;;23.40;10.10;;;;;;;-4.64;100.00;94318.97;5031289;28;20095;-70
2022/12/09 02:24:19;;;;;;;26.80;9.77;;;;;;;-4.58;100.00;94308.69;5022113;28;20048;-69
2022/12/09 02:26:49;;;;;;;20.33;9.50;;;;;;;-4.57;100.00;94305.13;5029460;28;20041;-70
2022/12/09 02:29:46;;;;;;;26.48;10.15;;;;;;;-4.57;100.00;94300.00;5025993;28;20087;-70
2022/12/09 02:32:19;;;;;;;21.00;9.60;;;;;;;-4.54;100.00;94293.63;5006695;28;20065;-69
2022/12/09 02:35:04;;;;;;;21.48;8.32;;;;;;;-4.50;100.00;94297.38;5023075;28;20041;-70
2022/12/09 02:37:37;;;;;;;21.35;8.93;;;;;;;-4.58;100.00;94302.78;5013492;28;20050;-70
2022/12/09 02:40:13;;;;;;;20.45;9.07;;;;;;;-4.53;100.00;94310.63;5024377;28;20084;-70
2022/12/09 02:42:42;;;;;;;17.48;7.93;;;;;;;-4.48;100.00;94297.97;5027271;28;20144;-69
2022/12/09 02:45:09;;;;;;;17.20;8.43;;;;;;;-4.55;100.00;94303.13;5030610;28;20051;-69
2022/12/09 02:47:39;;;;;;;25.08;8.90;;;;;;;-4.56;100.00;94298.19;5030038;28;20038;-69
2022/12/09 02:50:10;;;;;;;19.25;7.75;;;;;;;-4.43;100.00;94293.00;5030815;28;20033;-69
2022/12/09 02:52:36;;;;;;;16.38;7.72;;;;;;;-4.40;100.00;94290.00;5021373;28;20050;-70
2022/12/09 02:55:05;;;;;;;22.33;7.85;;;;;;;-4.39;100.00;94295.94;5027801;28;20061;-70
2022/12/09 02:57:34;;;;;;;16.60;7.82;;;;;;;-4.38;100.00;94285.47;5028417;28;20068;-70
2022/12/09 03:00:00;;;;;;;24.25;8.57;;;;;;;-4.30;100.00;94279.28;5025430;28;20531;-70
2022/12/09 03:02:34;;;;;;;20.75;8.43;;;;;;;-4.39;100.00;94265.91;5021476;28;20064;-70
2022/12/09 03:05:10;;;;;;;17.75;8.38;;;;;;;-4.32;100.00;94265.88;5024283;28;20108;-70
2022/12/09 03:07:54;;;;;;;20.05;8.48;;;;;;;-4.31;100.00;94256.38;5017655;28;20488;-70
2022/12/09 03:10:29;;;;;;;16.05;7.30;;;;;;;-4.30;100.00;94260.53;5031447;28;20400;-70
2022/12/09 03:13:11;;;;;;;18.92;7.85;;;;;;;-4.41;100.00;94252.50;5015166;28;20115;-70
2022/12/09 03:15:42;;;;;;;24.60;8.35;;;;;;;-4.38;100.00;94246.16;5021531;28;20499;-70
2022/12/09 03:18:12;;;;;;;17.52;7.28;;;;;;;-4.46;100.00;94252.31;5025883;28;20565;-70
2022/12/09 03:20:41;;;;;;;21.17;7.55;;;;;;;-4.54;100.00;94253.38;5015010;28;20128;-71
2022/12/09 03:23:10;;;;;;;17.10;7.65;;;;;;;-4.59;100.00;94254.97;5020208;28;20876;-71
2022/12/09 03:25:42;;;;;;;19.00;8.48;;;;;;;-4.59;100.00;94260.09;5011633;28;20050;-70
2022/12/09 03:28:16;;;;;;;21.20;8.77;;;;;;;-4.56;100.00;94254.56;5031663;28;20044;-71
2022/12/09 03:30:44;;;;;;;18.38;8.25;;;;;;;-4.61;100.00;94247.47;5022069;28;20137;-71
2022/12/09 03:33:13;;;;;;;24.63;8.50;;;;;;;-4.74;100.00;94253.47;5027519;28;20045;-71
2022/12/09 03:35:47;;;;;;;16.85;7.10;;;;;;;-4.73;100.00;94249.88;5023350;28;20049;-70
2022/12/09 03:38:16;;;;;;;21.85;7.72;;;;;;;-4.67;100.00;94247.50;5024659;28;20045;-70
2022/12/09 03:40:42;;;;;;;22.85;9.05;;;;;;;-4.63;100.00;94254.56;5019129;28;20087;-71
2022/12/09 03:43:14;;;;;;;16.10;8.05;;;;;;;-4.65;100.00;94253.22;5025339;28;20041;-71
2022/12/09 03:45:41;;;;;;;14.55;7.10;;;;;;;-4.58;100.00;94247.06;5027726;28;20513;-68
2022/12/09 03:48:08;;;;;;;17.27;7.82;;;;;;;-4.70;100.00;94254.63;5023710;28;20279;-68
2022/12/09 03:50:40;;;;;;;20.08;8.30;;;;;;;-4.74;100.00;94243.19;5028707;28;20042;-69
2022/12/09 03:53:20;;;;;;;17.80;8.05;;;;;;;-4.79;100.00;94245.56;5023420;28;20038;-69
2022/12/09 03:56:25;;;;;;;20.70;7.80;;;;;;;-4.76;100.00;94240.03;5023476;28;20530;-69
2022/12/09 03:58:54;;;;;;;16.02;7.10;;;;;;;-4.76;100.00;94224.63;5014458;28;20040;-69
2022/12/09 04:01:22;;;;;;;21.58;7.85;;;;;;;-4.77;100.00;94223.06;5026572;28;20554;-69
2022/12/09 04:03:51;;;;;;;19.83;7.70;;;;;;;-4.73;100.00;94229.34;5027220;28;20037;-69
2022/12/09 04:06:17;;;;;;;17.15;6.72;;;;;;;-4.73;100.00;94219.06;5028480;28;20053;-70
2022/12/09 04:08:43;;;;;;;18.35;7.95;;;;;;;-4.73;100.00;94219.06;5015000;28;20048;-69
2022/12/09 04:11:08;;;;;;;15.13;6.18;;;;;;;-4.71;100.00;94221.47;5030049;28;20146;-70
2022/12/09 04:13:34;;;;;;;20.38;7.38;;;;;;;-4.69;100.00;94224.59;5019780;28;20072;-69
2022/12/09 04:15:59;;;;;;;17.98;7.72;;;;;;;-4.70;100.00;94223.81;5018215;28;20060;-69
2022/12/09 04:18:25;;;;;;;19.50;7.47;;;;;;;-4.64;100.00;94231.69;5018344;28;20508;-69
2022/12/09 04:20:50;;;;;;;22.98;8.55;;;;;;;-4.61;100.00;94231.25;5019248;28;20058;-69
2022/12/09 04:23:16;;;;;;;19.63;8.43;;;;;;;-4.57;100.00;94222.16;5025111;28;20049;-69
2022/12/09 04:25:41;;;;;;;16.77;7.30;;;;;;;-4.58;100.00;94223.19;5025345;28;20113;-69
2022/12/09 04:28:07;;;;;;;15.45;7.85;;;;;;;-4.59;100.00;94224.16;5024493;28;20068;-69
2022/12/09 04:30:33;;;;;;;17.75;7.03;;;;;;;-4.56;100.00;94218.59;5021401;28;20499;-69
2022/12/09 04:32:59;;;;;;;17.17;7.25;;;;;;;-4.58;100.00;94210.34;5027572;28;20861;-69
2022/12/09 04:35:25;;;;;;;16.40;7.60;;;;;;;-4.59;100.00;94201.06;5011238;28;20523;-70
2022/12/09 04:37:50;;;;;;;18.35;7.95;;;;;;;-4.61;100.00;94188.44;5021770;28;20060;-69
2022/12/09 04:40:16;;;;;;;18.67;7.88;;;;;;;-4.64;100.00;94180.34;5023664;28;20500;-69
2022/12/09 04:42:41;;;;;;;17.98;7.97;;;;;;;-4.62;100.00;94178.38;5015142;28;20046;-70
2022/12/09 04:45:07;;;;;;;16.85;7.90;;;;;;;-4.65;100.00;94173.66;5021043;28;20041;-70
2022/12/09 04:47:33;;;;;;;17.63;8.23;;;;;;;-4.63;100.00;94177.56;5015750;28;20057;-69
2022/12/09 04:49:59;;;;;;;20.05;9.23;;;;;;;-4.55;100.00;94176.53;5019007;28;20057;-70
2022/12/09 04:52:25;;;;;;;19.35;8.13;;;;;;;-4.54;100.00;94175.53;5014512;28;20171;-69
2022/12/09 04:54:50;;;;;;;21.67;9.55;;;;;;;-4.53;100.00;94174.53;5023392;28;20514;-70
2022/12/09 04:57:17;;;;;;;20.55;9.02;;;;;;;-4.55;100.00;94176.53;5023141;28;20045;-70
2022/12/09 04:59:42;;;;;;;23.35;7.95;;;;;;;-4.47;100.00;94176.25;5026600;28;20129;-70
2022/12/09 05:02:08;;;;;;;20.33;8.57;;;;;;;-4.47;100.00;94168.56;5013044;28;21352;-69
2022/12/09 05:04:34;;;;;;;21.17;8.50;;;;;;;-4.43;100.00;94162.03;5015919;28;20424;-69
2022/12/09 05:06:59;;;;;;;18.20;8.10;;;;;;;-4.43;100.00;94151.75;5022708;28;20099;-70
2022/12/09 05:09:25;;;;;;;18.10;8.57;;;;;;;-4.42;100.00;94150.75;5029526;28;20054;-71
2022/12/09 05:11:52;;;;;;;22.33;9.00;;;;;;;-4.39;100.00;94152.91;5025413;28;20120;-70
2022/12/09 05:14:17;;;;;;;22.70;9.15;;;;;;;-4.39;100.00;94152.91;5026298;28;20041;-69
2022/12/09 05:16:43;;;;;;;20.83;9.38;;;;;;;-4.37;100.00;94150.13;5022506;28;20445;-70
2022/12/09 05:19:08;;;;;;;22.63;9.18;;;;;;;-4.33;100.00;94160.78;5018092;28;20042;-69
2022/12/09 05:21:34;;;;;;;23.88;10.10;;;;;;;-4.44;100.00;94157.91;5029884;28;20045;-69
2022/12/09 05:24:01;;;;;;;22.60;9.43;;;;;;;-4.38;100.00;94169.91;5029829;28;20044;-68
2022/12/09 05:26:27;;;;;;;25.75;9.90;;;;;;;-4.18;100.00;94163.81;5017354;28;20058;-70
2022/12/09 05:28:52;;;;;;;18.75;8.85;;;;;;;-4.23;100.00;94161.88;5039974;28;20874;-68
2022/12/09 05:31:21;;;;;;;22.92;9.50;;;;;;;-4.22;100.00;94162.69;5040582;28;20056;-67
2022/12/09 05:33:47;;;;;;;22.55;9.63;;;;;;;-4.18;100.00;94163.81;5048255;28;20045;-68
2022/12/09 05:36:16;;;;;;;23.65;10.35;;;;;;;-4.25;100.00;94163.06;5055203;28;20092;-68
2022/12/09 05:38:42;;;;;;;28.05;9.98;;;;;;;-4.20;100.00;94150.38;5051517;28;20029;-68
2022/12/09 05:41:08;;;;;;;23.65;10.15;;;;;;;-4.22;100.00;94152.41;5046807;28;20034;-68
2022/12/09 05:43:35;;;;;;;21.98;9.48;;;;;;;-4.24;100.00;94160.31;5047464;28;20057;-68
2022/12/09 05:46:02;;;;;;;27.30;10.13;;;;;;;-4.23;100.00;94155.94;5053953;28;20037;-68
2022/12/09 05:48:27;;;;;;;21.05;9.13;;;;;;;-4.24;100.00;94156.94;5051004;28;20033;-68
2022/12/09 05:51:04;;;;;;;22.30;10.27;;;;;;;-4.22;100.00;94152.41;5055539;28;20097;-68
2022/12/09 05:53:30;;;;;;;23.85;10.48;;;;;;;-4.20;100.00;94151.16;5032475;28;20052;-70
2022/12/09 05:55:56;;;;;;;24.20;9.95;;;;;;;-4.16;100.00;94146.41;5024115;28;20414;-69
2022/12/09 05:58:22;;;;;;;19.60;9.27;;;;;;;-4.18;100.00;94143.25;5013778;28;20053;-70
2022/12/09 06:00:48;;;;;;;22.23;9.98;;;;;;;-4.15;100.00;94137.72;5019358;28;20065;-70
2022/12/09 06:03:14;;;;;;;18.77;10.02;;;;;;;-4.17;100.00;94129.41;5027989;28;20069;-70
2022/12/09 06:05:40;;;;;;;20.90;9.88;;;;;;;-4.18;100.00;94138.09;5013209;28;20560;-69
2022/12/09 06:08:06;;;;;;;29.33;10.85;;;;;;;-4.16;100.00;94131.00;5029237;28;20049;-70
2022/12/09 06:10:31;;;;;;;25.60;10.05;;;;;;;-4.15;100.00;94127.44;5014528;28;20034;-69
2022/12/09 06:12:57;;;;;;;24.27;10.25;;;;;;;-4.11;100.00;94133.69;5019668;28;20488;-70
2022/12/09 06:15:23;;;;;;;24.30;10.25;;;;;;;-4.07;100.00;94134.84;5022362;28;20508;-69
2022/12/09 06:17:49;;;;;;;32.05;10.95;;;;;;;-4.05;100.00;94121.78;5024351;28;20170;-70
2022/12/09 06:20:15;;;;;;;24.02;11.43;;;;;;;-4.01;100.00;94121.19;5016924;28;20042;-69
2022/12/09 06:22:40;;;;;;;24.77;11.65;;;;;;;-3.93;100.00;94121.91;5028093;28;20042;-69
2022/12/09 06:25:06;;;;;;;31.00;12.55;;;;;;;-3.87;100.00;94123.59;5015430;28;20149;-69
2022/12/09 06:27:31;;;;;;;30.10;12.02;;;;;;;-3.84;100.00;94107.75;5012268;28;20033;-70
2022/12/09 06:29:57;;;;;;;40.42;13.00;;;;;;;-3.85;100.00;94111.31;5015673;28;20045;-70
2022/12/09 06:32:22;;;;;;;36.92;13.15;;;;;;;-3.82;100.00;94100.63;5024911;28;20045;-70
2022/12/09 06:34:48;;;;;;;31.02;12.75;;;;;;;-3.76;100.00;94099.75;5027381;28;20049;-70
2022/12/09 06:37:15;;;;;;;34.72;12.88;;;;;;;-3.77;100.00;94093.03;5015859;28;20163;-69
2022/12/09 06:39:41;;;;;;;31.95;13.02;;;;;;;-3.77;100.00;94093.03;5025710;28;20091;-69
2022/12/09 06:42:06;;;;;;;39.20;13.77;;;;;;;-3.70;100.00;94092.97;5026925;28;20049;-70
2022/12/09 06:44:32;;;;;;;40.55;13.77;;;;;;;-3.67;100.00;94107.97;5027771;28;20055;-70
2022/12/09 06:46:58;;;;;;;39.13;12.63;;;;;;;-3.65;100.00;94095.69;5022443;28;20042;-70
2022/12/09 06:49:23;;;;;;;35.30;12.85;;;;;;;-3.58;100.00;94087.91;5013204;28;20412;-70
2022/12/09 06:51:49;;;;;;;34.85;14.25;;;;;;;-3.59;100.00;94088.88;5025709;28;20126;-69
2022/12/09 06:54:15;;;;;;;37.53;13.45;;;;;;;-3.54;100.00;94096.75;5017620;28;20076;-71
2022/12/09 06:56:40;;;;;;;31.50;13.68;;;;;;;-3.50;100.00;94100.47;5023021;28;20068;-70
2022/12/09 06:59:07;;;;;;;35.28;13.18;;;;;;;-3.47;100.00;94102.59;5015915;28;20050;-70
2022/12/09 07:01:34;;;;;;;38.58;14.13;;;;;;;-3.49;100.00;94089.19;5026990;28;20381;-70
2022/12/09 07:03:59;;;;;;;42.03;14.82;;;;;;;-3.44;100.00;94091.09;5012933;28;20037;-69
2022/12/09 07:06:35;;;;;;;42.33;14.02;;;;;;;-3.41;100.00;94095.81;5020287;28;20047;-69
2022/12/09 07:09:04;;;;;;;41.38;15.40;;;;;;;-3.39;100.00;94094.59;5027639;28;20104;-70
2022/12/09 07:11:30;;;;;;;43.38;15.68;;;;;;;-3.44;100.00;94102.16;5027993;28;20045;-69
2022/12/09 07:13:56;;;;;;;42.72;15.95;;;;;;;-3.44;100.00;94112.47;5023067;28;20048;-69
2022/12/09 07:16:21;;;;;;;44.03;17.10;;;;;;;-3.40;100.00;94113.59;5024513;28;20561;-69
2022/12/09 07:18:47;;;;;;;42.33;15.38;;;;;;;-3.36;100.00;94109.59;5023795;28;20136;-68
2022/12/09 07:21:16;;;;;;;43.10;15.18;;;;;;;-3.32;100.00;94108.16;5027397;28;20049;-69
2022/12/09 07:23:42;;;;;;;40.05;16.25;;;;;;;-3.29;100.00;94113.88;5025709;28;20480;-69
2022/12/09 07:26:08;;;;;;;36.25;14.35;;;;;;;-3.26;100.00;94103.13;5024880;28;20100;-70
2022/12/09 07:28:35;;;;;;;39.33;14.38;;;;;;;-3.25;100.00;94100.34;5012803;28;20081;-71
2022/12/09 07:31:02;;;;;;;37.25;15.02;;;;;;;-3.22;100.00;94088.84;5020439;28;20443;-70
2022/12/09 07:33:28;;;;;;;33.42;12.55;;;;;;;-3.21;100.00;94080.13;5023078;28;20422;-71
2022/12/09 07:35:57;;;;;;;34.85;12.98;;;;;;;-3.25;100.00;94068.69;5027367;28;20037;-71
2022/12/09 07:38:24;;;;;;;31.60;12.25;;;;;;;-3.15;100.00;94074.91;5025280;28;20504;-72
2022/12/09 07:40:51;;;;;;;29.30;12.38;;;;;;;-3.08;100.00;94077.38;5022621;28;20041;-71
2022/12/09 07:43:17;;;;;;;34.15;13.30;;;;;;;-3.10;100.00;94076.81;5021528;28;20045;-70
2022/12/09 07:45:43;;;;;;;39.00;13.52;;;;;;;-3.04;100.00;94065.63;5022723;28;20525;-69
2022/12/09 07:48:09;;;;;;;36.95;13.18;;;;;;;-3.00;100.00;94064.19;5023582;28;20044;-70
2022/12/09 07:50:34;;;;;;;31.15;12.88;;;;;;;-2.91;100.00;94071.59;5026931;28;20411;-70
2022/12/09 07:53:00;;;;;;;35.88;13.10;;;;;;;-2.98;100.00;94069.88;5030065;28;20068;-70
2022/12/09 07:55:26;;;;;;;31.90;12.13;;;;;;;-2.87;100.00;94080.47;5028176;28;20107;-71
2022/12/09 07:57:51;;;;;;;40.22;13.90;;;;;;;-2.87;100.00;94075.31;5021396;28;20487;-69
2022/12/09 08:00:17;;;;;;;40.08;14.40;;;;;;;-2.80;100.00;94086.31;5020384;28;20058;-70
2022/12/09 08:02:43;;;;;;;32.60;12.52;;;;;;;-2.79;100.00;94087.84;5021840;28;20037;-69
2022/12/09 08:05:09;;;;;;;39.90;15.02;;;;;;;-2.83;100.00;94084.94;5019727;28;20044;-71
2022/12/09 08:07:34;;;;;;;37.50;14.27;;;;;;;-2.83;100.00;94086.72;5027733;28;20041;-70
2022/12/09 08:10:00;;;;;;;46.47;14.68;;;;;;;-2.78;100.00;94089.44;5024840;28;20619;-71
2022/12/09 08:12:25;;;;;;;39.58;15.23;;;;;;;-2.80;100.00;94083.72;5017610;28;20072;-70
2022/12/09 08:14:51;;;;;;;36.38;14.18;;;;;;;-2.75;100.00;94077.91;5028473;28;20485;-70
2022/12/09 08:17:16;;;;;;;42.97;15.02;;;;;;;-2.76;100.00;94069.38;5029067;28;20049;-71
2022/12/09 08:19:42;;;;;;;37.00;14.13;;;;;;;-2.70;100.00;94068.50;5023056;28;20042;-70
2022/12/09 08:22:08;;;;;;;43.13;14.60;;;;;;;-2.69;100.00;94059.75;5030101;28;20087;-70
2022/12/09 08:24:34;;;;;;;34.22;14.85;;;;;;;-2.64;100.00;94059.88;5029799;28;20045;-70
2022/12/09 08:26:59;;;;;;;46.25;15.77;;;;;;;-2.59;100.00;94072.09;5019657;28;20037;-71
2022/12/09 08:29:25;;;;;;;39.60;15.20;;;;;;;-2.65;100.00;94066.03;5022486;28;20045;-70
2022/12/09 08:31:51;;;;;;;46.45;16.13;;;;;;;-2.56;100.00;94070.88;5028631;28;20045;-69
2022/12/09 08:34:17;;;;;;;46.42;15.93;;;;;;;-2.64;100.00;94057.31;5015686;28;20594;-70
2022/12/09 08:36:43;;;;;;;50.55;17.65;;;;;;;-2.66;100.00;94061.13;5024640;28;20124;-70
2022/12/09 08:39:09;;;;;;;47.10;17.83;;;;;;;-2.55;100.00;94062.16;5035288;28;20119;-71
2022/12/09 08:41:36;;;;;;;46.78;15.35;;;;;;;-2.64;100.00;94054.75;5023158;28;20045;-71
2022/12/09 08:44:02;;;;;;;63.17;18.90;;;;;;;-2.62;100.00;94047.56;5023954;28;20034;-70
2022/12/09 08:46:28;;;;;;;57.60;18.60;;;;;;;-2.51;100.00;94052.97;5027101;28;20487;-70
2022/12/09 08:48:55;;;;;;;61.47;19.65;;;;;;;-2.48;100.00;94042.22;5017685;28;20053;-70
2022/12/09 08:51:20;;;;;;;52.63;18.00;;;;;;;-2.45;100.00;94041.75;5027705;28;20034;-71
2022/12/09 08:53:46;;;;;;;57.63;17.98;;;;;;;-2.44;100.00;94043.34;5017954;28;20045;-70
2022/12/09 08:56:13;;;;;;;59.95;19.38;;;;;;;-2.35;100.00;94036.84;5015962;28;20488;-71
2022/12/09 08:58:40;;;;;;;57.15;19.67;;;;;;;-2.35;100.00;94036.84;5016320;28;20048;-71
2022/12/09 09:01:06;;;;;;;62.65;20.20;;;;;;;-2.38;100.00;94031.34;5023008;28;20602;-70
2022/12/09 09:03:32;;;;;;;59.65;20.10;;;;;;;-2.32;100.00;94041.53;5027469;28;20117;-71
2022/12/09 09:06:05;;;;;;;53.38;19.83;;;;;;;-2.36;100.00;94047.38;5022345;28;20041;-70
2022/12/09 09:08:31;;;;;;;62.03;19.40;;;;;;;-2.39;100.00;94051.16;5018616;28;20061;-70
2022/12/09 09:10:58;;;;;;;57.38;20.02;;;;;;;-2.34;100.00;94061.59;5019625;28;20566;-70
2022/12/09 09:13:24;;;;;;;58.55;19.90;;;;;;;-2.31;100.00;94062.94;5024878;28;20038;-71
2022/12/09 09:15:49;;;;;;;66.82;21.70;;;;;;;-2.19;100.00;94061.13;5017337;28;20042;-70
2022/12/09 09:18:15;;;;;;;68.40;20.83;;;;;;;-2.35;100.00;94062.59;5025761;28;20096;-71
2022/12/09 09:20:46;;;;;;;56.72;19.70;;;;;;;-2.31;100.00;94057.78;5027324;28;20042;-70
2022/12/09 09:23:13;;;;;;;69.03;22.90;;;;;;;-2.23;100.00;94049.69;5029619;28;20049;-71
2022/12/09 09:25:42;;;;;;;63.42;21.17;;;;;;;-2.16;100.00;94054.75;5020337;28;20044;-70
2022/12/09 09:28:08;;;;;;;67.10;21.58;;;;;;;-2.15;100.00;94066.63;5013551;28;20040;-70
2022/12/09 09:30:35;;;;;;;73.30;22.67;;;;;;;-2.09;100.00;94065.72;5020947;28;20522;-72
2022/12/09 09:33:02;;;;;;;61.28;20.40;;;;;;;-2.02;100.00;94060.47;5019748;28;20061;-71
2022/12/09 09:35:28;;;;;;;66.18;22.25;;;;;;;-1.89;100.00;94049.13;5026860;28;20050;-70
2022/12/09 09:37:53;;;;;;;65.03;20.15;;;;;;;-1.98;100.00;94057.22;5024405;28;20048;-71
2022/12/09 09:40:21;;;;;;;65.90;21.17;;;;;;;-1.94;100.00;94058.31;5021725;28;20151;-69
2022/12/09 09:42:48;;;;;;;62.10;21.27;;;;;;;-1.97;100.00;94048.47;5016864;28;20518;-71
2022/12/09 09:45:19;;;;;;;65.35;21.50;;;;;;;-1.90;100.00;94037.25;5019839;28;20083;-70
2022/12/09 09:47:58;;;;;;;64.38;20.65;;;;;;;-1.96;100.00;94029.38;5025324;28;20080;-70
2022/12/09 09:50:42;;;;;;;70.88;21.13;;;;;;;-1.94;100.00;94032.53;5017491;28;20103;-69
2022/12/09 09:53:16;;;;;;;67.95;21.95;;;;;;;-1.88;100.00;94027.47;5015135;28;20046;-71
2022/12/09 09:55:51;;;;;;;59.97;19.65;;;;;;;-1.88;100.00;94024.88;5022516;28;20060;-70
2022/12/09 09:58:32;;;;;;;69.78;21.40;;;;;;;-1.97;100.00;94022.69;5023738;28;20046;-70
2022/12/09 10:01:04;;;;;;;78.28;21.45;;;;;;;-2.02;100.00;94014.84;5029781;28;20037;-70
2022/12/09 10:03:44;;;;;;;71.22;22.10;;;;;;;-1.94;100.00;94006.75;5026902;28;20065;-70
2022/12/09 10:06:28;;;;;;;77.45;21.63;;;;;;;-1.96;100.00;94008.00;5021061;28;20068;-70
2022/12/09 10:08:57;;;;;;;66.45;19.40;;;;;;;-1.89;100.00;94002.72;5020942;28;20042;-71
2022/12/09 10:11:38;;;;;;;79.53;20.05;;;;;;;-1.84;100.00;93997.63;5026878;28;20050;-70
2022/12/09 10:14:08;;;;;;;69.78;20.67;;;;;;;-1.75;100.00;93993.72;5015140;28;20123;-70
2022/12/09 10:16:42;;;;;;;65.85;20.92;;;;;;;-1.89;100.00;93982.09;5020238;28;20048;-71
2022/12/09 10:19:27;;;;;;;73.80;20.88;;;;;;;-1.85;100.00;93996.06;5022598;28;20128;-69
2022/12/09 10:21:55;;;;;;;62.90;19.13;;;;;;;-1.92;100.00;93991.84;5026439;28;20038;-73
2022/12/09 10:24:30;;;;;;;69.95;20.48;;;;;;;-1.81;100.00;93984.28;5031212;28;20041;-69
2022/12/09 10:27:01;;;;;;;59.75;19.65;;;;;;;-1.89;100.00;93992.41;5026694;28;20095;-68
2022/12/09 10:29:44;;;;;;;64.63;20.55;;;;;;;-1.83;100.00;93991.47;5025483;28;20148;-69
2022/12/09 10:32:17;;;;;;;66.22;20.77;;;;;;;-1.76;100.00;93994.72;5028504;28;20099;-70
2022/12/09 10:34:44;;;;;;;63.08;19.83;;;;;;;-1.77;100.00;93985.41;5031173;28;20407;-71
2022/12/09 10:37:22;;;;;;;70.07;20.40;;;;;;;-1.81;100.00;93979.13;5022550;28;20060;-71
2022/12/09 10:39:55;;;;;;;62.03;19.85;;;;;;;-1.81;100.00;93986.88;5032051;28;20042;-71
2022/12/09 10:45:08;;;;;;;62.33;20.48;;;;;;;-1.72;100.00;93987.28;5024514;28;20454;-70
2022/12/09 10:47:34;;;;;;;67.38;20.13;;;;;;;-1.68;100.00;93978.88;5021521;28;20050;-70
2022/12/09 10:50:00;;;;;;;66.53;21.02;;;;;;;-1.81;100.00;93969.63;5022300;28;20388;-71
2022/12/09 10:52:38;;;;;;;73.10;20.77;;;;;;;-1.86;100.00;93969.50;5032461;28;20498;-70
2022/12/09 10:55:04;;;;;;;75.40;22.27;;;;;;;-1.78;100.00;93969.16;5025156;28;20037;-69
2022/12/09 10:57:29;;;;;;;68.55;21.02;;;;;;;-1.74;100.00;93953.97;5031478;28;20092;-69
2022/12/09 10:59:57;;;;;;;73.07;20.27;;;;;;;-1.64;100.00;93949.03;5026907;28;20403;-69
2022/12/09 11:02:23;;;;;;;73.03;21.45;;;;;;;-1.77;100.00;93944.13;5023315;28;20042;-69
2022/12/09 11:04:49;;;;;;;68.32;22.08;;;;;;;-1.76;100.00;93940.53;5019884;28;20041;-70
2022/12/09 11:07:21;;;;;;;73.57;21.75;;;;;;;-1.68;100.00;93942.75;5030747;28;20042;-69
2022/12/09 11:10:08;;;;;;;77.88;23.88;;;;;;;-1.74;100.00;93938.50;5026964;28;20049;-69
2022/12/09 11:12:38;;;;;;;72.90;22.92;;;;;;;-1.73;100.00;93929.75;5031348;28;20052;-69
2022/12/09 11:15:05;;;;;;;74.97;19.77;;;;;;;-1.66;100.00;93925.25;5019587;28;20049;-69
2022/12/09 11:17:38;;;;;;;81.03;22.73;;;;;;;-1.67;100.00;93928.84;5026882;28;20033;-68
2022/12/09 11:20:03;;;;;;;75.97;21.20;;;;;;;-1.67;100.00;93923.69;5024328;28;20071;-69